Washington Township, Michigan
Current Conditions -  °F | °C
As of 3:55 PM on Sunday 21 Dec 2014 (Local Time) from KMTC Reporting Station
Broken Clouds Broken Clouds  
Wind Chill: 26°   Ceiling: 20000
Heat Index: 33°   Visibility: 7mi
Dew Point: 26°   Wind: 9mph
Humidity: 73%   Direction: 170°S
Pressure: 30.22"   Gusts: NA
Location:  42.7821°N, 83.0432°W
Report Text: KMTC 212055Z 17008KT 7SM FEW025 FEW050 BKN200 01/M04 A3022 RMK SLP248 T00071036 55008
Loading
Personal Weather Stations






























Interactive Weather Map New forecast layout! Learn more

10-Day Weather Forecast

Advertisements
Track Severe Weather on mobile